createdAt,value
2019-01-05T00:00:12.516Z,1023.35
2019-01-05T00:00:53.359Z,1023.37
2019-01-05T00:01:33.938Z,1023.34
2019-01-05T00:02:14.232Z,1023.38
2019-01-05T00:02:54.681Z,1023.39
2019-01-05T00:03:35.128Z,1023.33
2019-01-05T00:04:15.501Z,1023.38
2019-01-05T00:04:55.926Z,1023.32
2019-01-05T00:05:36.323Z,1023.37
2019-01-05T00:06:16.684Z,1023.31
2019-01-05T00:06:57.105Z,1023.35
2019-01-05T00:07:37.775Z,1023.29
2019-01-05T00:08:18.082Z,1023.31
2019-01-05T00:08:58.458Z,1023.32
2019-01-05T00:09:38.850Z,1023.3
2019-01-05T00:10:19.574Z,1023.24
2019-01-05T00:10:59.776Z,1023.3
2019-01-05T00:11:40.148Z,1023.3
2019-01-05T00:12:20.547Z,1023.23
2019-01-05T00:13:01.007Z,1023.28
2019-01-05T00:13:41.412Z,1023.27
2019-01-05T00:14:21.960Z,1023.26
2019-01-05T00:15:02.289Z,1023.27
2019-01-05T00:15:42.664Z,1023.33
2019-01-05T00:16:23.048Z,1023.33
2019-01-05T00:17:03.533Z,1023.23
2019-01-05T00:17:44.100Z,1023.23
2019-01-05T00:18:24.850Z,1023.24
2019-01-05T00:19:05.190Z,1023.25
2019-01-05T00:19:45.632Z,1023.19
2019-01-05T00:20:26.054Z,1023.24
2019-01-05T00:21:08.881Z,1023.11
2019-01-05T00:21:49.359Z,1023.22
2019-01-05T00:22:29.655Z,1023.19
2019-01-05T00:23:10.032Z,1023.17
2019-01-05T00:23:50.466Z,1023.15
2019-01-05T00:24:30.894Z,1023.2
2019-01-05T00:25:11.343Z,1023.15
2019-01-05T00:25:51.752Z,1023.16
2019-01-05T00:26:32.227Z,1023.13
2019-01-05T00:27:12.586Z,1023.16
2019-01-05T00:27:53.096Z,1023.08
2019-01-05T00:28:33.342Z,1023.12
2019-01-05T00:29:13.668Z,1023.12
2019-01-05T00:29:54.776Z,1023.1
2019-01-05T00:30:36.045Z,1023.05
2019-01-05T00:31:16.478Z,1023.07
2019-01-05T00:31:56.933Z,1023.09
2019-01-05T00:32:37.334Z,1023.04
2019-01-05T00:33:17.762Z,1023.05
2019-01-05T00:33:58.113Z,1023.07
2019-01-05T00:34:43.437Z,1023.07
2019-01-05T00:35:23.797Z,1023.16
2019-01-05T00:36:04.429Z,1023.18
2019-01-05T00:36:44.977Z,1023.1
2019-01-05T00:37:25.443Z,1023.1
2019-01-05T00:38:05.803Z,1023.03
2019-01-05T00:38:46.320Z,1023.1
2019-01-05T00:39:26.613Z,1023.09
2019-01-05T00:40:07.986Z,1023.13
2019-01-05T00:40:48.500Z,1023.11
2019-01-05T00:41:28.887Z,1023.12
2019-01-05T00:42:09.246Z,1023.12
2019-01-05T00:42:49.721Z,1023.11
2019-01-05T00:43:30.016Z,1023.11
2019-01-05T00:44:10.477Z,1023.14
2019-01-05T00:44:50.875Z,1023.09
2019-01-05T00:45:31.289Z,1023.09
2019-01-05T00:46:12.184Z,1023.11
2019-01-05T00:46:52.641Z,1023.06
2019-01-05T00:47:32.878Z,1023.07
2019-01-05T00:48:13.175Z,1023.07
2019-01-05T00:48:53.656Z,1023.09
2019-01-05T00:49:33.999Z,1023.03
2019-01-05T00:50:14.362Z,1023.08
2019-01-05T00:50:55.392Z,1023.04
2019-01-05T00:51:36.048Z,1023.08
2019-01-05T00:52:16.596Z,1023.06
2019-01-05T00:52:56.885Z,1023.08
2019-01-05T00:53:37.301Z,1023
2019-01-05T00:54:18.163Z,1023.07
2019-01-05T00:54:58.595Z,1023.05
2019-01-05T00:55:39.003Z,1023.01
2019-01-05T00:56:19.365Z,1023.05
2019-01-05T00:56:59.842Z,1023.02
2019-01-05T00:57:40.271Z,1023.01
2019-01-05T00:58:20.621Z,1023.06
2019-01-05T00:59:01.499Z,1023
2019-01-05T00:59:41.498Z,1022.98
2019-01-05T01:00:23.338Z,1022.95
2019-01-05T01:01:03.933Z,1022.97
2019-01-05T01:01:44.297Z,1023.03
2019-01-05T01:02:24.713Z,1023.06
2019-01-05T01:03:05.706Z,1022.99
2019-01-05T01:03:46.143Z,1023.04
2019-01-05T01:04:26.567Z,1023.09
2019-01-05T01:05:06.975Z,1023.02
2019-01-05T01:05:47.464Z,1023.06
2019-01-05T01:06:27.598Z,1023.11
2019-01-05T01:07:08.082Z,1023.14
2019-01-05T01:07:48.470Z,1023.09
2019-01-05T01:08:29.104Z,1023.19
2019-01-05T01:09:09.330Z,1023.11
2019-01-05T01:09:50.766Z,1023.17
2019-01-05T01:10:31.168Z,1023.1
2019-01-05T01:11:11.503Z,1023.19
2019-01-05T01:11:51.937Z,1023.22
2019-01-05T01:12:32.407Z,1023.17
2019-01-05T01:13:13.502Z,1023.21
2019-01-05T01:13:53.835Z,1023.18
2019-01-05T01:14:34.860Z,1023.06
2019-01-05T01:15:15.107Z,1023.14
2019-01-05T01:15:55.537Z,1023.12
2019-01-05T01:16:36.109Z,1023.01
2019-01-05T01:17:17.371Z,1023.09
2019-01-05T01:17:57.646Z,1023.06
2019-01-05T01:18:38.457Z,1023.09
2019-01-05T01:19:18.908Z,1023.13
2019-01-05T01:19:59.209Z,1023.14
2019-01-05T01:20:39.582Z,1023.15
2019-01-05T01:21:20.112Z,1023.11
2019-01-05T01:22:00.382Z,1023.15
2019-01-05T01:22:40.786Z,1023.17
2019-01-05T01:23:22.330Z,1023.17
2019-01-05T01:24:02.539Z,1023.18
2019-01-05T01:24:42.979Z,1023.2
2019-01-05T01:25:23.286Z,1023.2
2019-01-05T01:26:03.715Z,1023.22
2019-01-05T01:26:44.153Z,1023.24
2019-01-05T01:27:24.508Z,1023.24
2019-01-05T01:28:04.942Z,1023.21
2019-01-05T01:28:45.296Z,1023.23
2019-01-05T01:29:25.806Z,1023.17
2019-01-05T01:30:06.117Z,1023.14
2019-01-05T01:30:46.495Z,1023.2
2019-01-05T01:31:26.845Z,1023.21
2019-01-05T01:32:07.268Z,1023.18
2019-01-05T01:32:47.660Z,1023.24
2019-01-05T01:33:28.124Z,1023.21
2019-01-05T01:34:09.095Z,1023.28
2019-01-05T01:34:49.347Z,1023.25
2019-01-05T01:35:29.777Z,1023.15
2019-01-05T01:36:10.144Z,1023.23
2019-01-05T01:36:50.594Z,1023.13
2019-01-05T01:37:30.940Z,1023.29
2019-01-05T01:38:11.377Z,1023.3
2019-01-05T01:38:51.728Z,1023.29
2019-01-05T01:39:32.974Z,1023.31
2019-01-05T01:40:13.371Z,1023.3
2019-01-05T01:40:53.759Z,1023.32
2019-01-05T01:41:34.691Z,1023.27
2019-01-05T01:42:15.239Z,1023.31
2019-01-05T01:42:55.650Z,1023.34
2019-01-05T01:43:36.046Z,1023.34
2019-01-05T01:44:16.503Z,1023.25
2019-01-05T01:44:56.851Z,1023.34
2019-01-05T01:45:37.354Z,1023.29
2019-01-05T01:46:17.660Z,1023.27
2019-01-05T01:46:58.116Z,1023.26
2019-01-05T01:47:38.440Z,1023.31
2019-01-05T01:48:18.821Z,1023.32
2019-01-05T01:49:00.122Z,1023.27
2019-01-05T01:49:40.494Z,1023.26
2019-01-05T01:50:20.963Z,1023.29
2019-01-05T01:51:01.190Z,1023.31
2019-01-05T01:51:41.700Z,1023.27
2019-01-05T01:52:22.087Z,1023.3
2019-01-05T01:53:02.419Z,1023.26
2019-01-05T01:53:42.945Z,1023.28
2019-01-05T01:54:23.236Z,1023.3
2019-01-05T01:55:04.487Z,1023.18
2019-01-05T01:55:44.894Z,1023.29
2019-01-05T01:56:25.426Z,1023.29
2019-01-05T01:57:05.684Z,1023.26
2019-01-05T01:57:46.111Z,1023.23
2019-01-05T01:58:26.486Z,1023.25
2019-01-05T01:59:06.933Z,1023.28
2019-01-05T01:59:47.637Z,1023.24
2019-01-05T02:00:28.379Z,1023.24
2019-01-05T02:01:08.826Z,1023.22
2019-01-05T02:01:49.230Z,1023.24
2019-01-05T02:02:29.575Z,1023.24
2019-01-05T02:03:10.003Z,1023.21
2019-01-05T02:03:50.444Z,1023.25
2019-01-05T02:04:31.381Z,1023.21
2019-01-05T02:05:11.969Z,1023.19
2019-01-05T02:05:52.348Z,1023.19
2019-01-05T02:06:32.827Z,1023.17
2019-01-05T02:07:13.166Z,1023.2
2019-01-05T02:07:53.531Z,1023.17
2019-01-05T02:08:33.981Z,1023.15
2019-01-05T02:09:14.351Z,1023.13
2019-01-05T02:09:54.744Z,1023.11
2019-01-05T02:10:35.170Z,1023.09
2019-01-05T02:11:15.523Z,1023.05
2019-01-05T02:11:55.895Z,1023.08
2019-01-05T02:12:36.357Z,1023.04
2019-01-05T02:13:16.759Z,1023.06
2019-01-05T02:13:57.942Z,1023.03
2019-01-05T02:14:38.154Z,1022.99
2019-01-05T02:15:18.614Z,1023.09
2019-01-05T02:15:58.983Z,1022.97
2019-01-05T02:16:39.417Z,1023.04
2019-01-05T02:17:19.776Z,1023.08
2019-01-05T02:18:00.179Z,1023.05
2019-01-05T02:18:40.613Z,1023.04
2019-01-05T02:19:20.968Z,1023.08
2019-01-05T02:20:01.418Z,1023.04
2019-01-05T02:20:41.798Z,1023.07
2019-01-05T02:21:22.134Z,1023.09
2019-01-05T02:22:02.550Z,1023.01
2019-01-05T02:22:42.967Z,1023.01
2019-01-05T02:23:23.449Z,1023.05
2019-01-05T02:24:03.769Z,1023.01
2019-01-05T02:24:44.173Z,1023.1
2019-01-05T02:25:24.601Z,1023.06
2019-01-05T02:26:04.966Z,1023.07
2019-01-05T02:26:45.409Z,1023.09
2019-01-05T02:27:25.768Z,1023.01
2019-01-05T02:28:06.197Z,1023.03
2019-01-05T02:28:46.606Z,1023.02
2019-01-05T02:29:27.016Z,1023.03
2019-01-05T02:30:07.468Z,1023.01
2019-01-05T02:30:47.802Z,1023.04
2019-01-05T02:31:28.216Z,1023
2019-01-05T02:32:08.566Z,1023
2019-01-05T02:32:48.994Z,1022.95
2019-01-05T02:33:29.359Z,1022.87
2019-01-05T02:34:13.004Z,1022.91
2019-01-05T02:34:53.576Z,1022.91
2019-01-05T02:35:33.923Z,1022.84
2019-01-05T02:36:14.350Z,1022.87
2019-01-05T02:36:54.757Z,1022.89
2019-01-05T02:37:35.083Z,1022.87
2019-01-05T02:38:15.461Z,1022.82
2019-01-05T02:38:55.881Z,1022.78
2019-01-05T02:39:36.576Z,1022.85
2019-01-05T02:40:17.119Z,1022.8
2019-01-05T02:40:57.320Z,1022.74
2019-01-05T02:41:37.825Z,1022.73
2019-01-05T02:42:19.054Z,1022.71
2019-01-05T02:42:59.416Z,1022.72
2019-01-05T02:43:39.887Z,1022.75
2019-01-05T02:44:20.271Z,1022.7
2019-01-05T02:45:00.807Z,1022.72
2019-01-05T02:45:41.210Z,1022.7
2019-01-05T02:46:21.955Z,1022.7
2019-01-05T02:47:02.189Z,1022.76
2019-01-05T02:47:42.545Z,1022.69
2019-01-05T02:48:22.959Z,1022.66
2019-01-05T02:49:03.501Z,1022.67
2019-01-05T02:49:43.790Z,1022.64
2019-01-05T02:50:24.230Z,1022.61
2019-01-05T02:51:04.631Z,1022.55
2019-01-05T02:51:45.046Z,1022.51
2019-01-05T02:52:25.545Z,1022.46
2019-01-05T02:53:05.876Z,1022.51
2019-01-05T02:53:46.308Z,1022.46
2019-01-05T02:54:26.663Z,1022.39
2019-01-05T02:55:07.066Z,1022.4
2019-01-05T02:55:47.441Z,1022.37
2019-01-05T02:56:27.831Z,1022.4
2019-01-05T02:57:08.363Z,1022.41
2019-01-05T02:57:48.729Z,1022.35
2019-01-05T02:58:28.993Z,1022.42
2019-01-05T02:59:09.422Z,1022.42
2019-01-05T02:59:49.859Z,1022.46
2019-01-05T03:00:30.220Z,1022.42
2019-01-05T03:01:10.603Z,1022.36
2019-01-05T03:01:51.025Z,1022.27
2019-01-05T03:02:31.448Z,1022.3
2019-01-05T03:03:11.794Z,1022.28
2019-01-05T03:03:52.201Z,1022.27
2019-01-05T03:04:32.617Z,1022.2
2019-01-05T03:05:12.977Z,1022.2
2019-01-05T03:05:53.422Z,1022.23
2019-01-05T03:06:33.886Z,1022.2
2019-01-05T03:07:14.599Z,1022.2
2019-01-05T03:07:55.002Z,1022.24
2019-01-05T03:08:35.369Z,1022.23
2019-01-05T03:09:15.732Z,1022.21
2019-01-05T03:09:56.159Z,1022.19
2019-01-05T03:10:36.551Z,1022.15
2019-01-05T03:11:16.939Z,1022.17
2019-01-05T03:11:57.327Z,1022.14
2019-01-05T03:12:37.736Z,1022.07
2019-01-05T03:13:18.168Z,1022.08
2019-01-05T03:13:58.572Z,1022.07
2019-01-05T03:14:38.908Z,1022.12
2019-01-05T03:15:19.235Z,1022.06
2019-01-05T03:15:59.659Z,1022.14
2019-01-05T03:16:40.058Z,1022.12
2019-01-05T03:17:20.482Z,1022.11
2019-01-05T03:18:01.163Z,1022.07
2019-01-05T03:18:41.585Z,1022
2019-01-05T03:19:21.986Z,1022.06
2019-01-05T03:20:02.397Z,1022.09
2019-01-05T03:20:42.880Z,1021.99
2019-01-05T03:21:23.223Z,1021.95
2019-01-05T03:22:03.702Z,1021.9
2019-01-05T03:22:44.010Z,1021.89
2019-01-05T03:23:24.457Z,1021.99
2019-01-05T03:24:04.802Z,1021.92
2019-01-05T03:24:45.237Z,1021.98
2019-01-05T03:25:25.573Z,1021.94
2019-01-05T03:26:05.971Z,1021.96
2019-01-05T03:26:46.413Z,1021.92
2019-01-05T03:27:26.849Z,1021.95
2019-01-05T03:28:07.685Z,1021.91
2019-01-05T03:28:48.071Z,1021.9
2019-01-05T03:29:28.608Z,1021.84
2019-01-05T03:30:09.149Z,1021.81
2019-01-05T03:30:49.583Z,1021.86
2019-01-05T03:31:29.994Z,1021.88
2019-01-05T03:32:10.565Z,1021.87
2019-01-05T03:32:50.964Z,1021.85
2019-01-05T03:33:31.399Z,1021.97
2019-01-05T03:34:11.862Z,1021.89
2019-01-05T03:34:52.196Z,1021.93
2019-01-05T03:35:32.617Z,1021.87
2019-01-05T03:36:13.099Z,1021.98
2019-01-05T03:36:54.775Z,1021.95
2019-01-05T03:37:35.848Z,1021.92
2019-01-05T03:38:16.062Z,1021.95
2019-01-05T03:38:56.459Z,1021.95
2019-01-05T03:39:36.865Z,1021.91
2019-01-05T03:40:17.212Z,1021.93
2019-01-05T03:40:57.620Z,1021.87
2019-01-05T03:41:37.995Z,1021.85
2019-01-05T03:42:18.337Z,1021.9
2019-01-05T03:42:58.768Z,1021.84
2019-01-05T03:43:39.142Z,1021.87
2019-01-05T03:44:20.187Z,1021.82
2019-01-05T03:45:00.999Z,1021.77
2019-01-05T03:45:41.367Z,1021.75
2019-01-05T03:46:21.729Z,1021.69
2019-01-05T03:47:02.084Z,1021.74
2019-01-05T03:47:42.513Z,1021.77
2019-01-05T03:48:22.899Z,1021.73
2019-01-05T03:49:03.289Z,1021.72
2019-01-05T03:49:43.644Z,1021.7
2019-01-05T03:50:24.089Z,1021.73
2019-01-05T03:51:04.437Z,1021.69
2019-01-05T03:51:44.896Z,1021.71
2019-01-05T03:52:25.326Z,1021.7
2019-01-05T03:53:05.687Z,1021.71
2019-01-05T03:53:46.122Z,1021.66
2019-01-05T03:54:26.480Z,1021.58
2019-01-05T03:55:06.935Z,1021.56
2019-01-05T03:55:48.315Z,1021.61
2019-01-05T03:56:28.765Z,1021.59
2019-01-05T03:57:09.219Z,1021.49
2019-01-05T03:57:49.567Z,1021.42
2019-01-05T03:58:30.020Z,1021.46
2019-01-05T03:59:10.619Z,1021.43
2019-01-05T03:59:50.967Z,1021.45
2019-01-05T04:00:31.667Z,1021.4
2019-01-05T04:01:12.057Z,1021.41
2019-01-05T04:01:52.523Z,1021.45
2019-01-05T04:02:32.830Z,1021.42
2019-01-05T04:03:13.234Z,1021.4
2019-01-05T04:03:53.720Z,1021.39
2019-01-05T04:04:33.962Z,1021.38
2019-01-05T04:05:14.543Z,1021.38
2019-01-05T04:05:55.032Z,1021.4
2019-01-05T04:06:35.472Z,1021.37
2019-01-05T04:07:15.757Z,1021.37
2019-01-05T04:07:56.179Z,1021.36
2019-01-05T04:08:36.563Z,1021.39
2019-01-05T04:09:16.979Z,1021.39
2019-01-05T04:09:57.365Z,1021.32
2019-01-05T04:10:37.788Z,1021.33
2019-01-05T04:11:18.142Z,1021.36
2019-01-05T04:11:58.818Z,1021.37
2019-01-05T04:12:38.968Z,1021.3
2019-01-05T04:13:19.409Z,1021.36
2019-01-05T04:13:59.879Z,1021.34
2019-01-05T04:14:41.008Z,1021.38
2019-01-05T04:15:22.035Z,1021.36
2019-01-05T04:16:04.060Z,1021.34
2019-01-05T04:16:44.486Z,1021.35
2019-01-05T04:17:25.731Z,1021.29
2019-01-05T04:18:06.143Z,1021.31
2019-01-05T04:18:46.585Z,1021.37
2019-01-05T04:19:27.144Z,1021.37
2019-01-05T04:20:07.362Z,1021.29
2019-01-05T04:20:47.854Z,1021.28
2019-01-05T04:21:28.286Z,1021.32
2019-01-05T04:22:09.009Z,1021.27
2019-01-05T04:22:50.012Z,1021.21
2019-01-05T04:23:30.410Z,1021.35
2019-01-05T04:24:11.098Z,1021.27
2019-01-05T04:24:51.497Z,1021.26
2019-01-05T04:25:32.113Z,1021.32
2019-01-05T04:26:12.434Z,1021.34
2019-01-05T04:26:52.943Z,1021.22
2019-01-05T04:27:33.356Z,1021.32
2019-01-05T04:28:14.497Z,1021.27
2019-01-05T04:28:55.312Z,1021.24
2019-01-05T05:13:20.824Z,1020.76
2019-01-05T05:14:02.536Z,1020.72
2019-01-05T05:14:45.445Z,1020.73
2019-01-05T05:15:25.968Z,1020.55
2019-01-05T05:16:06.428Z,1020.72
2019-01-05T05:16:47.000Z,1020.75
2019-01-05T05:17:27.590Z,1020.71
2019-01-05T05:18:12.549Z,1020.68
2019-01-05T05:18:53.915Z,1020.58
2019-01-05T05:19:34.251Z,1020.67
2019-01-05T05:20:15.605Z,1020.68
2019-01-05T05:20:56.088Z,1020.69
2019-01-05T05:21:36.449Z,1020.74
2019-01-05T05:22:17.840Z,1020.71
2019-01-05T05:22:58.200Z,1020.72
2019-01-05T05:23:39.553Z,1020.67
2019-01-05T05:24:19.965Z,1020.68
2019-01-05T05:25:00.321Z,1020.73
2019-01-05T05:25:40.734Z,1020.7
2019-01-05T05:26:21.238Z,1020.68
2019-01-05T05:27:01.505Z,1020.69
2019-01-05T05:27:41.970Z,1020.74
2019-01-05T05:28:23.423Z,1020.7
2019-01-05T05:29:03.748Z,1020.66
2019-01-05T05:29:45.067Z,1020.79
2019-01-05T05:30:26.973Z,1020.78
2019-01-05T05:31:07.612Z,1020.76
2019-01-05T05:31:48.063Z,1020.76
2019-01-05T05:32:28.405Z,1020.84
2019-01-05T05:33:08.776Z,1020.85
2019-01-05T05:33:49.159Z,1020.86
2019-01-05T05:34:31.477Z,1020.85
2019-01-05T05:35:11.871Z,1020.82
2019-01-05T05:35:53.989Z,1020.82
2019-01-05T05:36:35.363Z,1020.89
2019-01-05T05:37:17.286Z,1020.82
2019-01-05T05:37:57.756Z,1020.88
2019-01-05T05:38:38.082Z,1020.95
2019-01-05T05:39:18.462Z,1020.88
2019-01-05T05:39:58.863Z,1020.86
2019-01-05T05:40:39.263Z,1020.85
2019-01-05T05:41:19.632Z,1020.75
2019-01-05T05:42:00.059Z,1020.76
2019-01-05T05:42:42.298Z,1020.76
2019-01-05T05:43:22.906Z,1020.75
2019-01-05T05:44:03.369Z,1020.72
2019-01-05T05:44:46.786Z,1020.71
2019-01-05T05:45:28.799Z,1020.76
2019-01-05T05:46:09.214Z,1020.72
2019-01-05T05:46:49.591Z,1020.74
2019-01-05T05:47:30.001Z,1020.78
2019-01-05T05:48:10.411Z,1020.69
2019-01-05T05:48:54.395Z,1020.74
2019-01-05T05:49:34.771Z,1020.77
2019-01-05T05:50:15.207Z,1020.88
2019-01-05T05:50:55.611Z,1020.79
2019-01-05T05:51:36.011Z,1020.74
2019-01-05T05:52:17.371Z,1020.73
2019-01-05T05:52:57.727Z,1020.76
2019-01-05T05:53:38.134Z,1020.65
2019-01-05T05:54:18.549Z,1020.67
2019-01-05T05:54:58.958Z,1020.72
2019-01-05T05:55:39.527Z,1020.73
2019-01-05T05:56:21.368Z,1020.79
2019-01-05T05:57:01.870Z,1020.75
2019-01-05T05:57:42.154Z,1020.73
2019-01-05T05:58:22.873Z,1020.7
2019-01-05T05:59:05.108Z,1020.76
2019-01-05T05:59:45.461Z,1020.76
2019-01-05T06:00:29.328Z,1020.77
2019-01-05T06:01:09.749Z,1020.7
2019-01-05T06:01:50.146Z,1020.78
2019-01-05T06:02:30.558Z,1020.8
2019-01-05T06:03:10.943Z,1020.8
2019-01-05T06:03:51.394Z,1020.73
2019-01-05T06:04:32.778Z,1020.83
2019-01-05T06:05:13.158Z,1020.83
2019-01-05T06:05:55.463Z,1020.8
2019-01-05T06:06:35.874Z,1020.8
2019-01-05T06:07:17.977Z,1020.81
2019-01-05T06:07:58.353Z,1020.83
2019-01-05T06:08:38.753Z,1020.84
2019-01-05T06:09:19.159Z,1020.8
2019-01-05T06:09:59.734Z,1020.72
2019-01-05T06:10:40.072Z,1020.79
2019-01-05T06:11:20.392Z,1020.74
2019-01-05T06:12:00.795Z,1020.84
2019-01-05T06:12:41.171Z,1020.74
2019-01-05T06:13:23.496Z,1020.72
2019-01-05T06:14:04.815Z,1020.8
2019-01-05T06:14:45.264Z,1020.8
2019-01-05T06:15:26.621Z,1020.77
2019-01-05T06:16:07.093Z,1020.88
2019-01-05T06:16:47.444Z,1020.7
2019-01-05T06:17:27.906Z,1020.89
2019-01-05T06:18:08.218Z,1020.81
2019-01-05T06:18:48.649Z,1020.93
2019-01-05T06:19:29.188Z,1020.86
2019-01-05T06:20:09.455Z,1020.87
2019-01-05T06:20:49.824Z,1020.85
2019-01-05T06:21:32.129Z,1020.91
2019-01-05T06:22:12.532Z,1020.84
2019-01-05T06:22:52.987Z,1020.85
2019-01-05T06:23:33.359Z,1020.75
2019-01-05T06:24:14.751Z,1020.74
2019-01-05T06:30:05.491Z,1020.69
2019-01-05T06:30:47.344Z,1020.62
2019-01-05T06:31:28.609Z,1020.68
2019-01-05T06:32:09.012Z,1020.56
2019-01-05T06:32:49.414Z,1020.69
2019-01-05T06:33:29.923Z,1020.62
2019-01-05T06:34:11.284Z,1020.62
2019-01-05T06:34:51.672Z,1020.4
2019-01-05T06:35:32.036Z,1020.43
2019-01-05T06:36:12.438Z,1020.62
2019-01-05T06:36:52.779Z,1020.68
2019-01-05T06:37:33.178Z,1020.63
2019-01-05T06:38:13.579Z,1020.68
2019-01-05T06:38:53.948Z,1020.7
2019-01-05T06:39:34.500Z,1020.56
2019-01-05T06:40:15.776Z,1020.66
2019-01-05T06:40:56.274Z,1020.69
2019-01-05T06:41:36.582Z,1020.57
2019-01-05T06:42:16.992Z,1020.65
2019-01-05T06:42:57.433Z,1020.64
2019-01-05T06:43:37.986Z,1020.64
2019-01-05T06:44:20.253Z,1020.66
2019-01-05T06:51:51.463Z,1020.65
2019-01-05T06:52:31.876Z,1020.71
2019-01-05T06:53:12.361Z,1020.72
2019-01-05T06:53:52.676Z,1020.76
2019-01-05T06:54:33.061Z,1020.68
2019-01-05T06:55:13.433Z,1020.75
2019-01-05T06:55:55.394Z,1020.71
2019-01-05T06:59:55.608Z,1020.73
2019-01-05T07:00:36.303Z,1020.78
2019-01-05T07:01:17.599Z,1020.81
2019-01-05T07:01:58.013Z,1020.78
2019-01-05T07:02:42.107Z,1020.79
2019-01-05T07:03:25.362Z,1020.78
2019-01-05T07:10:58.686Z,1020.81
2019-01-05T07:11:41.005Z,1020.71
2019-01-05T07:12:23.305Z,1020.81
2019-01-05T07:13:03.723Z,1020.83
2019-01-05T07:13:45.047Z,1020.8
2019-01-05T07:14:25.438Z,1020.85
2019-01-05T07:15:08.613Z,1020.78
2019-01-05T07:15:49.000Z,1020.86
2019-01-05T07:16:29.417Z,1020.7
2019-01-05T07:17:11.511Z,1020.89
2019-01-05T07:17:51.847Z,1020.83
2019-01-05T07:18:32.288Z,1020.8
2019-01-05T07:19:12.637Z,1020.74
2019-01-05T07:19:56.465Z,1020.84
2019-01-05T07:20:36.842Z,1020.77
2019-01-05T07:21:17.272Z,1020.92
2019-01-05T07:21:57.695Z,1020.91
2019-01-05T07:22:39.815Z,1020.89
2019-01-05T07:23:23.030Z,1020.84
2019-01-05T07:24:03.440Z,1020.93
2019-01-05T07:24:43.916Z,1020.93
2019-01-05T07:25:24.296Z,1020.84
2019-01-05T07:26:04.870Z,1020.94
2019-01-05T07:26:46.145Z,1020.96
2019-01-05T07:27:26.543Z,1020.9
2019-01-05T07:28:08.873Z,1020.92
2019-01-05T07:28:48.995Z,1020.99
2019-01-05T07:29:29.383Z,1020.93
2019-01-05T07:30:14.531Z,1021.03
2019-01-05T07:30:54.942Z,1020.98
2019-01-05T07:31:35.334Z,1020.99
2019-01-05T07:32:26.553Z,1021.01
2019-01-05T07:33:07.654Z,1021.01
2019-01-05T07:33:48.061Z,1020.88
2019-01-05T07:34:28.439Z,1021.01
2019-01-05T07:35:09.747Z,1020.99
2019-01-05T07:35:50.113Z,1020.97
2019-01-05T07:36:30.493Z,1021.02
2019-01-05T07:37:12.549Z,1021
2019-01-05T07:37:52.951Z,1020.93
2019-01-05T07:38:33.494Z,1020.92
2019-01-05T07:39:13.885Z,1021.04
2019-01-05T07:39:56.074Z,1020.99
2019-01-05T07:40:36.439Z,1021.02
2019-01-05T07:41:16.793Z,1021
2019-01-05T07:41:57.185Z,1021
2019-01-05T07:42:39.523Z,1020.94
2019-01-05T07:43:20.834Z,1021.03
2019-01-05T07:44:03.282Z,1021.03
2019-01-05T07:44:45.153Z,1020.98
2019-01-05T07:45:27.040Z,1020.9
2019-01-05T07:46:07.497Z,1020.93
2019-01-05T07:46:48.852Z,1020.94
2019-01-05T07:47:29.325Z,1020.98
2019-01-05T07:48:09.731Z,1020.94
2019-01-05T07:48:50.142Z,1020.97
2019-01-05T07:49:32.007Z,1020.98
2019-01-05T07:50:12.446Z,1021.04
2019-01-05T07:50:54.542Z,1020.95
2019-01-05T07:51:35.840Z,1021
2019-01-05T07:52:20.092Z,1020.93
2019-01-05T07:53:01.382Z,1020.94
2019-01-05T07:53:41.748Z,1020.91
2019-01-05T07:54:22.156Z,1020.94
2019-01-05T07:55:02.505Z,1020.94
2019-01-05T07:55:42.968Z,1020.95
2019-01-05T07:56:24.990Z,1020.88
2019-01-05T07:57:05.319Z,1020.97
2019-01-05T07:57:45.709Z,1021.04
2019-01-05T07:58:26.115Z,1020.94
2019-01-05T07:59:06.477Z,1021.01
2019-01-05T07:59:46.900Z,1021.03
2019-01-05T08:00:28.276Z,1021.04
2019-01-05T08:01:10.682Z,1021
2019-01-05T08:01:50.882Z,1021.02
2019-01-05T08:02:31.260Z,1021.09
2019-01-05T08:03:13.424Z,1021.06
2019-01-05T08:03:54.633Z,1021.1
2019-01-05T08:04:35.075Z,1021.12
2019-01-05T08:05:16.474Z,1021.12
2019-01-05T08:05:56.879Z,1021.14
2019-01-05T08:06:38.354Z,1021.13
2019-01-05T08:07:18.904Z,1021.11
2019-01-05T08:08:05.074Z,1021.08
2019-01-05T08:08:45.443Z,1021.05
2019-01-05T08:09:25.850Z,1021.1
2019-01-05T08:10:06.271Z,1021.14
2019-01-05T08:10:46.760Z,1021.08
2019-01-05T08:11:28.084Z,1021.07
2019-01-05T08:12:08.503Z,1021.13
2019-01-05T08:12:48.857Z,1021.16
2019-01-05T08:13:29.426Z,1021.2
2019-01-05T08:14:12.554Z,1021.05
2019-01-05T08:14:52.965Z,1021.15
2019-01-05T08:15:33.331Z,1021.14
2019-01-05T08:16:13.979Z,1021.09
2019-01-05T08:16:55.263Z,1021.14
2019-01-05T08:17:35.641Z,1021.18
2019-01-05T08:18:17.933Z,1021.08
2019-01-05T08:18:58.315Z,1021.16
2019-01-05T08:19:38.767Z,1021.13
2019-01-05T08:20:21.146Z,1021.15
2019-01-05T08:21:01.778Z,1021.15
2019-01-05T08:21:43.184Z,1021.13
2019-01-05T08:22:25.092Z,1021.13
2019-01-05T08:23:05.821Z,1021.13
2019-01-05T08:23:46.060Z,1021.11
2019-01-05T08:24:26.434Z,1021.03
2019-01-05T08:25:06.856Z,1021.14
2019-01-05T08:25:47.388Z,1021.11
2019-01-05T08:26:29.514Z,1021.08
2019-01-05T08:27:09.895Z,1021.12
2019-01-05T08:27:50.361Z,1021.11
2019-01-05T08:28:35.369Z,1021.06
2019-01-05T08:29:18.513Z,1021.11
2019-01-05T08:29:58.901Z,1021.06
2019-01-05T08:30:40.841Z,1021.05
2019-01-05T08:31:23.005Z,1021.14
2019-01-05T08:32:03.463Z,1021
2019-01-05T08:32:43.961Z,1021.09
2019-01-05T08:33:24.328Z,1021.08
2019-01-05T08:34:04.938Z,1021.05
2019-01-05T08:34:45.353Z,1021.07
2019-01-05T08:35:29.493Z,1021.08
2019-01-05T08:36:10.340Z,1021.07
2019-01-05T08:37:01.406Z,1021.09
2019-01-05T08:37:41.978Z,1021.07
2019-01-05T08:38:23.346Z,1021.1
2019-01-05T08:39:08.343Z,1021.06
2019-01-05T08:39:48.730Z,1021.03
2019-01-05T08:40:30.844Z,1021.04
2019-01-05T08:41:13.203Z,1021.08
2019-01-05T08:41:55.352Z,1021.13
2019-01-05T08:42:35.749Z,1021.18
2019-01-05T08:43:16.155Z,1021.11
2019-01-05T08:43:56.685Z,1021.16
2019-01-05T08:44:37.393Z,1021.13
2019-01-05T08:45:17.556Z,1021.14
2019-01-05T08:46:00.711Z,1021.1
2019-01-05T08:46:41.076Z,1021.17
2019-01-05T08:47:21.457Z,1021.18
2019-01-05T08:48:01.900Z,1021.2
2019-01-05T08:48:45.188Z,1021.07
2019-01-05T08:49:27.444Z,1021.15
2019-01-05T08:50:08.123Z,1021.1
2019-01-05T08:50:48.560Z,1021.01
2019-01-05T08:51:29.059Z,1021.08
2019-01-05T08:52:09.740Z,1021.19
2019-01-05T08:52:50.090Z,1021.2
2019-01-05T08:53:30.791Z,1021.2
2019-01-05T08:54:11.170Z,1021.22
2019-01-05T08:54:52.494Z,1021.19
2019-01-05T08:55:33.852Z,1021.2
2019-01-05T08:56:14.256Z,1021.22
2019-01-05T08:56:54.727Z,1021.26
2019-01-05T08:57:35.978Z,1021.23
2019-01-05T08:58:18.169Z,1021.27
2019-01-05T08:58:58.594Z,1021.25
2019-01-05T08:59:39.106Z,1021.22
2019-01-05T09:00:19.486Z,1021.22
2019-01-05T09:01:00.828Z,1021.2
2019-01-05T09:01:41.254Z,1021.22
2019-01-05T09:02:23.307Z,1021.12
2019-01-05T09:03:03.650Z,1021.17
2019-01-05T09:03:43.977Z,1021.16
2019-01-05T09:04:24.464Z,1021.17
2019-01-05T09:05:05.034Z,1021.13
2019-01-05T09:05:47.136Z,1021.02
2019-01-05T09:06:27.543Z,1021.05
2019-01-05T09:07:10.554Z,1021.07
2019-01-05T09:07:50.988Z,1021.05
2019-01-05T09:08:31.623Z,1021.06
2019-01-05T09:09:11.997Z,1021.08
2019-01-05T09:09:52.403Z,1021.16
2019-01-05T09:10:32.847Z,1021.14
2019-01-05T09:11:13.968Z,1021.16
2019-01-05T09:11:54.342Z,1021.13
2019-01-05T09:12:34.770Z,1021.17
2019-01-05T09:13:15.174Z,1021.2
2019-01-05T09:13:55.549Z,1021.19
2019-01-05T09:14:35.947Z,1021.2
2019-01-05T09:15:17.385Z,1021.18
2019-01-05T09:15:57.722Z,1021.01
2019-01-05T09:16:38.134Z,1021.17
2019-01-05T09:17:19.479Z,1021.2
2019-01-05T09:18:00.019Z,1021.16
2019-01-05T09:18:41.513Z,1021.15
2019-01-05T09:19:21.906Z,1021.18
2019-01-05T09:20:02.439Z,1021.11
2019-01-05T09:20:43.017Z,1021.34